Time;durP1;ratioP1;P1;durP2;ratioP2;P2;SDS_P1;SDS_P2;PMS_P1;PMS_P2;Temp;Humidity;BMP_temperature;BMP_pressure;BME280_temperature;BME280_humidity;BME280_pressure;Samples;Min_cycle;Max_cycle;Signal;HPM_P1;HPM_P2
2022/06/14 00:01:26;;;;;;;;;;;12.30;99.90;;;;;;5017852;28;20366;-78
2022/06/14 00:03:51;;;;;;;;;;;12.20;99.90;;;;;;5017562;28;19956;-79
2022/06/14 00:06:17;;;;;;;;;;;12.10;99.90;;;;;;5019027;28;19968;-80
2022/06/14 00:08:43;;;;;;;;;;;12.10;99.90;;;;;;5017320;28;20425;-79
2022/06/14 00:11:18;;;;;;;;;;;12.10;99.90;;;;;;5017718;28;19905;-79
2022/06/14 00:13:45;;;;;;;;;;;12.20;99.90;;;;;;5018707;28;20370;-79
2022/06/14 00:16:11;;;;;;;;;;;12.10;99.90;;;;;;5018144;28;19917;-79
2022/06/14 00:18:37;;;;;;;;;;;12.20;99.90;;;;;;5018085;28;19910;-79
2022/06/14 00:21:03;;;;;;;;;;;12.10;99.90;;;;;;5018616;28;19972;-79
2022/06/14 00:23:29;;;;;;;;;;;12.10;99.90;;;;;;5017754;28;19912;-79
2022/06/14 00:25:56;;;;;;;;;;;12.20;99.90;;;;;;5018521;28;19953;-78
2022/06/14 00:28:22;;;;;;;;;;;12.20;99.90;;;;;;5018476;28;19951;-78
2022/06/14 00:30:50;;;;;;;;;;;12.20;99.90;;;;;;5017165;28;19905;-79
2022/06/14 00:33:15;;;;;;;;;;;12.30;99.90;;;;;;5018017;28;19909;-79
2022/06/14 00:35:41;;;;;;;;;;;12.40;99.90;;;;;;5018835;28;20382;-79
2022/06/14 00:38:07;;;;;;;;;;;12.20;99.90;;;;;;5017004;28;19905;-78
2022/06/14 00:40:34;;;;;;;;;;;12.00;99.90;;;;;;5018090;28;19909;-78
2022/06/14 00:43:02;;;;;;;;;;;11.80;99.90;;;;;;5018065;28;19905;-77
2022/06/14 00:45:28;;;;;;;;;;;11.70;99.90;;;;;;5017478;28;20373;-79
2022/06/14 00:48:00;;;;;;;;;;;11.80;99.90;;;;;;5017093;28;19909;-79
2022/06/14 00:50:27;;;;;;;;;;;11.60;99.90;;;;;;5017931;28;19912;-79
2022/06/14 00:52:56;;;;;;;;;;;11.60;99.90;;;;;;5017830;28;19917;-78
2022/06/14 00:55:40;;;;;;;;;;;11.70;99.90;;;;;;5017249;28;19942;-79
2022/06/14 00:58:09;;;;;;;;;;;11.90;99.90;;;;;;5016792;28;19913;-79
2022/06/14 01:00:37;;;;;;;;;;;11.90;99.90;;;;;;5018169;28;19947;-78
2022/06/14 01:03:05;;;;;;;;;;;11.70;99.90;;;;;;5016573;28;19993;-79
2022/06/14 01:08:27;;;;;;;;;;;11.60;99.90;;;;;;5018135;28;19932;-79
2022/06/14 01:10:53;;;;;;;;;;;11.70;99.90;;;;;;5016561;28;19921;-79
2022/06/14 01:13:19;;;;;;;;;;;11.70;99.90;;;;;;5016546;28;20286;-79
2022/06/14 01:15:48;;;;;;;;;;;11.60;99.90;;;;;;5015833;28;19961;-78
2022/06/14 01:18:14;;;;;;;;;;;11.50;99.90;;;;;;5016159;28;19913;-79
2022/06/14 01:20:40;;;;;;;;;;;11.60;99.90;;;;;;5015906;28;19916;-79
2022/06/14 01:23:08;;;;;;;;;;;11.50;99.90;;;;;;5017368;28;19905;-78
2022/06/14 01:25:41;;;;;;;;;;;11.30;99.90;;;;;;5016558;28;19909;-78
2022/06/14 01:28:08;;;;;;;;;;;11.30;99.90;;;;;;5016076;28;19905;-78
2022/06/14 01:30:35;;;;;;;;;;;11.30;99.90;;;;;;5016535;28;19913;-79
2022/06/14 01:33:07;;;;;;;;;;;11.40;99.90;;;;;;5000540;28;20286;-79
2022/06/14 01:35:37;;;;;;;;;;;11.40;99.90;;;;;;5017664;28;19909;-79
2022/06/14 01:38:08;;;;;;;;;;;11.30;99.90;;;;;;5018611;28;19964;-80
2022/06/14 01:40:40;;;;;;;;;;;11.30;99.90;;;;;;5021949;28;19905;-79
2022/06/14 01:43:15;;;;;;;;;;;11.30;99.90;;;;;;5023794;28;20280;-80
2022/06/14 01:45:49;;;;;;;;;;;11.50;99.90;;;;;;5020564;28;19905;-79
2022/06/14 01:48:50;;;;;;;;;;;11.50;99.90;;;;;;5020710;28;19912;-80
2022/06/14 01:54:06;;;;;;;;;;;11.30;99.90;;;;;;5021390;28;20691;-79
2022/06/14 01:56:41;;;;;;;;;;;11.00;99.90;;;;;;5020099;28;19913;-78
2022/06/14 01:59:23;;;;;;;;;;;11.00;99.90;;;;;;5021681;28;19905;-80
2022/06/14 02:02:09;;;;;;;;;;;11.00;99.90;;;;;;5004499;28;20290;-80
2022/06/14 02:04:47;;;;;;;;;;;11.00;99.90;;;;;;5004244;28;20263;-79
2022/06/14 02:07:12;;;;;;;;;;;11.20;99.90;;;;;;5020328;28;19932;-80
2022/06/14 02:09:46;;;;;;;;;;;11.20;99.90;;;;;;5020705;28;19905;-79
2022/06/14 02:12:14;;;;;;;;;;;11.10;99.90;;;;;;5020400;28;20289;-80
2022/06/14 02:14:51;;;;;;;;;;;11.00;99.90;;;;;;5019376;28;19913;-79
2022/06/14 02:17:19;;;;;;;;;;;10.90;99.90;;;;;;5018681;28;19916;-79
2022/06/14 02:19:48;;;;;;;;;;;10.90;99.90;;;;;;5019479;28;19913;-79
2022/06/14 02:22:13;;;;;;;;;;;11.10;99.90;;;;;;5019738;28;19905;-79
2022/06/14 02:24:45;;;;;;;;;;;10.90;99.90;;;;;;5019902;28;20008;-79
2022/06/14 02:27:19;;;;;;;;;;;10.80;99.90;;;;;;5019039;28;19912;-80
2022/06/14 02:29:59;;;;;;;;;;;10.80;99.90;;;;;;5018391;28;19905;-79
2022/06/14 02:32:41;;;;;;;;;;;10.90;99.90;;;;;;5018291;28;19909;-78
2022/06/14 02:35:10;;;;;;;;;;;10.90;99.90;;;;;;5017234;28;19905;-78
2022/06/14 02:37:58;;;;;;;;;;;10.80;99.90;;;;;;5018497;28;19912;-78
2022/06/14 02:40:33;;;;;;;;;;;10.80;99.90;;;;;;5017563;28;19905;-79
2022/06/14 02:43:04;;;;;;;;;;;10.90;99.90;;;;;;5017403;28;19917;-79
2022/06/14 02:45:35;;;;;;;;;;;11.00;99.90;;;;;;5017296;28;20393;-79
2022/06/14 02:48:13;;;;;;;;;;;11.00;99.90;;;;;;5017154;28;19905;-79
2022/06/14 02:50:42;;;;;;;;;;;11.00;99.90;;;;;;5016559;28;20363;-79
2022/06/14 02:53:10;;;;;;;;;;;10.80;99.90;;;;;;5017383;28;19909;-79
2022/06/14 02:55:43;;;;;;;;;;;10.80;99.90;;;;;;5017235;28;19905;-79
2022/06/14 02:58:09;;;;;;;;;;;10.60;99.90;;;;;;5018397;28;19952;-79
2022/06/14 03:00:38;;;;;;;;;;;10.60;99.90;;;;;;5016696;28;20316;-79
2022/06/14 03:03:09;;;;;;;;;;;10.50;99.90;;;;;;5017142;28;19906;-79
2022/06/14 03:05:37;;;;;;;;;;;10.40;99.90;;;;;;5017877;28;19905;-79
2022/06/14 03:08:07;;;;;;;;;;;10.40;99.90;;;;;;5016603;28;19904;-79
2022/06/14 03:10:39;;;;;;;;;;;10.40;99.90;;;;;;5017725;28;19906;-78
2022/06/14 03:13:11;;;;;;;;;;;10.60;99.90;;;;;;5017738;28;19917;-79
2022/06/14 03:15:42;;;;;;;;;;;10.80;99.90;;;;;;5016592;28;19917;-79
2022/06/14 03:18:10;;;;;;;;;;;11.00;99.90;;;;;;5016934;28;19929;-79
2022/06/14 03:20:50;;;;;;;;;;;11.00;99.90;;;;;;5016871;28;19889;-78
2022/06/14 03:23:19;;;;;;;;;;;10.90;99.90;;;;;;5013977;28;19941;-79
2022/06/14 03:25:50;;;;;;;;;;;11.00;99.90;;;;;;5016383;28;19893;-80
2022/06/14 03:28:16;;;;;;;;;;;10.90;99.90;;;;;;5015983;28;19949;-79
2022/06/14 03:30:53;;;;;;;;;;;10.70;99.90;;;;;;5017178;28;19906;-79
2022/06/14 03:33:22;;;;;;;;;;;10.60;99.90;;;;;;5016993;28;19916;-79
2022/06/14 03:35:49;;;;;;;;;;;10.60;99.90;;;;;;5016800;28;19905;-79
2022/06/14 03:38:17;;;;;;;;;;;10.80;99.90;;;;;;5015775;28;19905;-79
2022/06/14 03:40:43;;;;;;;;;;;10.70;99.90;;;;;;5015471;28;19921;-79
2022/06/14 03:43:09;;;;;;;;;;;10.70;99.90;;;;;;5017014;28;19909;-79
2022/06/14 03:45:41;;;;;;;;;;;10.70;99.90;;;;;;5016663;28;19912;-79
2022/06/14 03:48:07;;;;;;;;;;;10.70;99.90;;;;;;5018055;28;19912;-79
2022/06/14 03:50:53;;;;;;;;;;;10.60;99.90;;;;;;5018400;28;19913;-79
2022/06/14 03:53:37;;;;;;;;;;;10.60;99.90;;;;;;5017543;28;20366;-79
2022/06/14 03:56:12;;;;;;;;;;;10.20;99.90;;;;;;5018924;28;19956;-79
2022/06/14 03:58:38;;;;;;;;;;;10.20;99.90;;;;;;5017946;28;19905;-78
2022/06/14 04:01:08;;;;;;;;;;;10.30;99.90;;;;;;5018524;28;19912;-78
2022/06/14 04:03:53;;;;;;;;;;;10.30;99.90;;;;;;5018485;28;20400;-79
2022/06/14 04:06:37;;;;;;;;;;;10.40;99.90;;;;;;5017538;28;19956;-78
2022/06/14 04:09:20;;;;;;;;;;;10.50;99.90;;;;;;5016114;28;20003;-78
2022/06/14 04:11:58;;;;;;;;;;;10.60;99.90;;;;;;5016703;28;19906;-80
2022/06/14 04:14:41;;;;;;;;;;;10.80;99.90;;;;;;5016245;28;19913;-79
2022/06/14 04:17:29;;;;;;;;;;;10.90;99.90;;;;;;5016710;28;19909;-78
2022/06/14 04:20:13;;;;;;;;;;;10.90;99.90;;;;;;5016906;28;19917;-79
2022/06/14 04:22:57;;;;;;;;;;;10.90;99.90;;;;;;5016547;28;19910;-79
2022/06/14 04:25:41;;;;;;;;;;;10.90;99.90;;;;;;5017807;28;20370;-79
2022/06/14 04:28:10;;;;;;;;;;;11.00;99.90;;;;;;5016664;28;19906;-79
2022/06/14 04:30:40;;;;;;;;;;;11.00;99.90;;;;;;5016677;28;19917;-79
2022/06/14 04:33:12;;;;;;;;;;;11.10;99.90;;;;;;5015330;28;19916;-79
2022/06/14 04:35:37;;;;;;;;;;;11.30;99.90;;;;;;5015435;28;19905;-79
2022/06/14 04:38:08;;;;;;;;;;;11.50;99.90;;;;;;5017162;28;19905;-79
2022/06/14 04:40:42;;;;;;;;;;;11.70;99.90;;;;;;5016882;28;19909;-78
2022/06/14 04:43:16;;;;;;;;;;;11.70;99.90;;;;;;5018084;28;19906;-78
2022/06/14 04:45:47;;;;;;;;;;;11.80;99.90;;;;;;5019579;28;19909;-79
2022/06/14 04:48:15;;;;;;;;;;;11.90;99.90;;;;;;5018737;28;20340;-79
2022/06/14 04:50:44;;;;;;;;;;;12.00;99.90;;;;;;5017158;28;19906;-77
2022/06/14 04:53:21;;;;;;;;;;;12.00;99.90;;;;;;5018417;28;20020;-78
2022/06/14 04:55:50;;;;;;;;;;;12.20;99.90;;;;;;5016444;28;19960;-78
2022/06/14 04:58:19;;;;;;;;;;;12.40;99.90;;;;;;5013150;28;19906;-78
2022/06/14 05:00:57;;;;;;;;;;;12.40;99.90;;;;;;5013062;28;19959;-78
2022/06/14 05:03:25;;;;;;;;;;;12.40;99.90;;;;;;5013098;28;20659;-78
2022/06/14 05:06:06;;;;;;;;;;;12.40;99.90;;;;;;5014508;28;20282;-78
2022/06/14 05:08:36;;;;;;;;;;;12.50;99.90;;;;;;5013465;28;20354;-78
2022/06/14 05:11:08;;;;;;;;;;;12.60;99.90;;;;;;5013351;28;19932;-78
2022/06/14 05:13:42;;;;;;;;;;;12.80;99.90;;;;;;5013074;28;19909;-78
2022/06/14 05:16:13;;;;;;;;;;;12.90;99.90;;;;;;5015307;28;20366;-78
2022/06/14 05:18:58;;;;;;;;;;;12.80;99.90;;;;;;5018154;28;19905;-78
2022/06/14 05:21:35;;;;;;;;;;;12.80;99.90;;;;;;5018795;28;19928;-78
2022/06/14 05:24:01;;;;;;;;;;;12.70;99.90;;;;;;5018340;28;19909;-77
2022/06/14 05:26:49;;;;;;;;;;;12.70;99.90;;;;;;5017116;28;19912;-78
2022/06/14 05:29:18;;;;;;;;;;;12.80;99.90;;;;;;5018018;28;19912;-78
2022/06/14 05:31:48;;;;;;;;;;;13.10;99.90;;;;;;5017478;28;19906;-78
2022/06/14 05:34:17;;;;;;;;;;;13.30;99.90;;;;;;5017112;28;19992;-78
2022/06/14 05:36:52;;;;;;;;;;;13.40;99.90;;;;;;5018044;28;19949;-78
2022/06/14 05:39:40;;;;;;;;;;;13.50;99.90;;;;;;5016748;28;19905;-78
2022/06/14 05:42:28;;;;;;;;;;;13.30;99.90;;;;;;5018668;28;19959;-79
2022/06/14 05:44:55;;;;;;;;;;;13.30;99.90;;;;;;5016254;28;20370;-77
2022/06/14 05:47:25;;;;;;;;;;;13.20;99.90;;;;;;5017805;28;19967;-78
2022/06/14 05:49:52;;;;;;;;;;;13.20;99.90;;;;;;5016284;28;19920;-78
2022/06/14 05:52:21;;;;;;;;;;;13.20;99.90;;;;;;5015948;28;20366;-78
2022/06/14 05:54:55;;;;;;;;;;;13.10;99.90;;;;;;5016166;28;19909;-78
2022/06/14 05:57:24;;;;;;;;;;;13.10;99.90;;;;;;5021789;28;20336;-78
2022/06/14 05:59:54;;;;;;;;;;;13.10;99.90;;;;;;5033617;28;19913;-78
2022/06/14 06:02:33;;;;;;;;;;;13.20;99.90;;;;;;5037930;28;20409;-75
2022/06/14 06:05:21;;;;;;;;;;;13.20;99.90;;;;;;5029762;28;19967;-76
2022/06/14 06:07:53;;;;;;;;;;;13.40;99.90;;;;;;5033837;28;21264;-75
2022/06/14 06:10:21;;;;;;;;;;;13.50;99.90;;;;;;5037006;28;19909;-74
2022/06/14 06:12:52;;;;;;;;;;;13.70;99.90;;;;;;5030185;28;19917;-76
2022/06/14 06:15:17;;;;;;;;;;;13.80;99.90;;;;;;5028039;28;19921;-75
2022/06/14 06:17:46;;;;;;;;;;;13.80;99.90;;;;;;5028467;28;19917;-74
2022/06/14 06:20:30;;;;;;;;;;;13.80;99.90;;;;;;5025540;28;20006;-74
2022/06/14 06:23:14;;;;;;;;;;;13.90;99.90;;;;;;5026889;28;19909;-76
2022/06/14 06:25:41;;;;;;;;;;;13.90;99.90;;;;;;5022126;28;19925;-76
2022/06/14 06:28:17;;;;;;;;;;;14.10;99.90;;;;;;5027165;28;19913;-77
2022/06/14 06:30:46;;;;;;;;;;;14.20;99.90;;;;;;5021737;28;19917;-77
2022/06/14 06:33:13;;;;;;;;;;;14.20;99.90;;;;;;5024200;28;19967;-77
2022/06/14 06:35:49;;;;;;;;;;;14.20;99.90;;;;;;5030351;28;19909;-77
2022/06/14 06:38:24;;;;;;;;;;;14.50;99.90;;;;;;5025853;28;19909;-75
2022/06/14 06:43:39;;;;;;;;;;;16.80;99.90;;;;;;5027252;28;19915;-77
2022/06/14 06:46:07;;;;;;;;;;;18.20;99.90;;;;;;5042896;28;20527;-76
2022/06/14 06:48:45;;;;;;;;;;;19.20;99.90;;;;;;5026491;28;19917;-76
2022/06/14 06:51:13;;;;;;;;;;;20.10;99.90;;;;;;5026220;28;19963;-76
2022/06/14 06:53:41;;;;;;;;;;;21.30;98.30;;;;;;5027699;28;19913;-76
2022/06/14 06:56:06;;;;;;;;;;;22.40;95.90;;;;;;5025825;28;20618;-76
2022/06/14 06:58:34;;;;;;;;;;;23.80;92.60;;;;;;5026144;28;20036;-75
2022/06/14 07:01:03;;;;;;;;;;;24.00;89.10;;;;;;5028200;28;19963;-75
2022/06/14 07:03:34;;;;;;;;;;;24.10;87.00;;;;;;5029554;28;19956;-75
2022/06/14 07:06:01;;;;;;;;;;;24.70;85.00;;;;;;5026714;28;19920;-75
2022/06/14 07:08:48;;;;;;;;;;;25.00;81.70;;;;;;5030752;28;19920;-76
2022/06/14 07:11:17;;;;;;;;;;;25.50;79.50;;;;;;5029785;28;19954;-75
2022/06/14 07:13:50;;;;;;;;;;;23.70;82.30;;;;;;5027714;28;19917;-76
2022/06/14 07:16:37;;;;;;;;;;;23.80;82.40;;;;;;5028496;28;19924;-75
2022/06/14 07:19:16;;;;;;;;;;;24.50;83.20;;;;;;5029722;28;19913;-75
2022/06/14 07:21:53;;;;;;;;;;;24.50;79.50;;;;;;5028277;28;20421;-75
2022/06/14 07:24:22;;;;;;;;;;;24.40;80.40;;;;;;5035146;28;19913;-75
2022/06/14 07:26:49;;;;;;;;;;;24.30;80.30;;;;;;5025786;28;19936;-76
2022/06/14 07:29:18;;;;;;;;;;;25.10;79.90;;;;;;5025709;28;19928;-77
2022/06/14 07:31:58;;;;;;;;;;;25.70;76.50;;;;;;5023274;28;19917;-76
2022/06/14 07:34:24;;;;;;;;;;;25.90;73.20;;;;;;5040465;28;19924;-77
2022/06/14 07:37:02;;;;;;;;;;;25.20;75.00;;;;;;5025242;28;19917;-77
2022/06/14 07:39:27;;;;;;;;;;;24.80;72.90;;;;;;5024444;28;19912;-76
2022/06/14 07:41:59;;;;;;;;;;;24.00;77.60;;;;;;5027897;28;19915;-77
2022/06/14 07:44:34;;;;;;;;;;;24.00;77.50;;;;;;5029179;28;19909;-77
2022/06/14 07:47:03;;;;;;;;;;;24.20;77.50;;;;;;5028588;28;19979;-76
2022/06/14 07:49:38;;;;;;;;;;;25.10;75.00;;;;;;5027631;28;19959;-76
2022/06/14 07:52:13;;;;;;;;;;;25.80;74.40;;;;;;5042348;28;19953;-76
2022/06/14 07:54:47;;;;;;;;;;;26.40;70.90;;;;;;5026859;28;19909;-77
2022/06/14 07:57:22;;;;;;;;;;;26.40;68.10;;;;;;5021538;28;20362;-77
2022/06/14 08:01:07;;;;;;;;;;;26.20;68.90;;;;;;5032521;28;20466;-76
2022/06/14 08:02:51;;;;;;;;;;;26.10;69.60;;;;;;5029637;28;19913;-77
2022/06/14 08:05:19;;;;;;;;;;;26.50;68.80;;;;;;5031759;28;19956;-76
2022/06/14 08:07:46;;;;;;;;;;;27.60;65.60;;;;;;5026870;28;20366;-75
2022/06/14 08:10:18;;;;;;;;;;;27.80;66.00;;;;;;5026345;28;20460;-78
2022/06/14 08:12:56;;;;;;;;;;;27.80;65.10;;;;;;5044482;28;19948;-81
2022/06/14 08:15:25;;;;;;;;;;;27.40;65.20;;;;;;5029001;28;20384;-78
2022/06/14 08:17:51;;;;;;;;;;;27.00;67.40;;;;;;5032499;28;19913;-78
2022/06/14 08:20:16;;;;;;;;;;;26.90;66.80;;;;;;5043222;28;19913;-78
2022/06/14 08:22:48;;;;;;;;;;;27.40;66.60;;;;;;5032553;28;19948;-78
2022/06/14 08:25:16;;;;;;;;;;;27.70;64.20;;;;;;5028948;28;19913;-77
2022/06/14 08:27:54;;;;;;;;;;;28.30;63.70;;;;;;5023742;28;19960;-77
2022/06/14 08:30:26;;;;;;;;;;;27.80;63.90;;;;;;5025360;28;20410;-76
2022/06/14 08:33:08;;;;;;;;;;;27.60;63.00;;;;;;5023710;28;19913;-76
2022/06/14 08:35:47;;;;;;;;;;;27.60;62.70;;;;;;5022187;28;19925;-76
2022/06/14 08:38:15;;;;;;;;;;;26.40;65.60;;;;;;5039056;28;19949;-76
2022/06/14 08:40:46;;;;;;;;;;;26.70;64.90;;;;;;5028917;28;20000;-77
2022/06/14 08:43:15;;;;;;;;;;;26.70;63.90;;;;;;5035806;28;19913;-76
2022/06/14 08:45:45;;;;;;;;;;;26.60;65.50;;;;;;5026175;28;19915;-76
2022/06/14 08:48:20;;;;;;;;;;;26.60;65.10;;;;;;5031305;28;19955;-76
2022/06/14 08:51:09;;;;;;;;;;;27.00;64.40;;;;;;5040748;28;19909;-76
2022/06/14 08:53:57;;;;;;;;;;;27.20;63.40;;;;;;5022401;28;19923;-76
2022/06/14 08:56:41;;;;;;;;;;;27.10;63.80;;;;;;5027904;28;20320;-76
2022/06/14 08:59:26;;;;;;;;;;;27.20;63.20;;;;;;5029520;28;20277;-76
2022/06/14 09:02:05;;;;;;;;;;;27.40;62.70;;;;;;5026048;28;19917;-75
2022/06/14 09:04:40;;;;;;;;;;;26.90;63.90;;;;;;5028485;28;19917;-75
2022/06/14 09:07:24;;;;;;;;;;;27.40;64.00;;;;;;5034197;28;19913;-75
2022/06/14 09:10:08;;;;;;;;;;;27.60;62.40;;;;;;5026876;28;19916;-74
2022/06/14 09:12:46;;;;;;;;;;;27.80;61.00;;;;;;5027667;28;20525;-74
2022/06/14 09:15:16;;;;;;;;;;;27.50;61.70;;;;;;5025332;28;19932;-74
2022/06/14 09:17:51;;;;;;;;;;;27.60;61.10;;;;;;5043509;28;19913;-74
2022/06/14 09:20:26;;;;;;;;;;;28.20;60.40;;;;;;5035159;28;19984;-74
2022/06/14 09:22:51;;;;;;;;;;;28.50;59.80;;;;;;5039774;28;20353;-74
2022/06/14 09:25:40;;;;;;;;;;;27.90;59.60;;;;;;5025572;28;19917;-75
2022/06/14 09:28:17;;;;;;;;;;;27.50;60.90;;;;;;5028619;28;19927;-76
2022/06/14 09:30:51;;;;;;;;;;;27.30;61.50;;;;;;5027727;28;20222;-76
2022/06/14 09:33:22;;;;;;;;;;;28.30;59.00;;;;;;5028551;28;21326;-76
2022/06/14 09:35:51;;;;;;;;;;;28.90;58.40;;;;;;5025425;28;19916;-77
2022/06/14 09:38:35;;;;;;;;;;;28.80;58.90;;;;;;5044732;28;19909;-76
2022/06/14 09:41:08;;;;;;;;;;;28.90;58.30;;;;;;5044128;28;19987;-76
2022/06/14 09:43:40;;;;;;;;;;;28.80;58.70;;;;;;5029137;28;19963;-76
2022/06/14 09:46:24;;;;;;;;;;;29.10;58.50;;;;;;5028146;28;20017;-77
2022/06/14 09:48:55;;;;;;;;;;;29.00;58.50;;;;;;5028410;28;19913;-75
2022/06/14 09:51:39;;;;;;;;;;;29.20;57.90;;;;;;5027682;28;19952;-76
2022/06/14 09:54:32;;;;;;;;;;;29.50;57.70;;;;;;5042660;28;19920;-76
2022/06/14 09:57:19;;;;;;;;;;;29.10;58.70;;;;;;5026090;28;20055;-76
2022/06/14 10:00:02;;;;;;;;;;;28.70;59.00;;;;;;5028994;28;19917;-76
2022/06/14 10:02:27;;;;;;;;;;;28.10;59.00;;;;;;5030984;28;19913;-76
2022/06/14 10:04:59;;;;;;;;;;;27.70;59.70;;;;;;5031357;28;20484;-77
2022/06/14 10:07:28;;;;;;;;;;;27.40;59.80;;;;;;5029310;28;19910;-76
2022/06/14 10:10:00;;;;;;;;;;;26.70;60.80;;;;;;5045566;28;20259;-76
2022/06/14 10:12:44;;;;;;;;;;;26.00;62.80;;;;;;5044413;28;20395;-76
2022/06/14 10:15:15;;;;;;;;;;;25.80;63.90;;;;;;5028756;28;19932;-75
2022/06/14 10:17:44;;;;;;;;;;;27.00;62.80;;;;;;5028316;28;19924;-77
2022/06/14 10:20:28;;;;;;;;;;;27.10;61.90;;;;;;5032092;28;20091;-76
2022/06/14 10:23:13;;;;;;;;;;;27.30;61.10;;;;;;5042180;28;19971;-75
2022/06/14 10:28:11;;;;;;;;;;;28.20;59.60;;;;;;5032996;28;19916;-77
2022/06/14 10:28:42;;;;;;;;;;;27.80;59.40;;;;;;5028759;28;19970;-78
2022/06/14 10:31:28;;;;;;;;;;;26.50;63.10;;;;;;5047610;28;19909;-78
2022/06/14 10:33:59;;;;;;;;;;;26.80;64.60;;;;;;5031963;28;19960;-77
2022/06/14 10:36:25;;;;;;;;;;;27.80;61.10;;;;;;5033135;28;19928;-78
2022/06/14 10:39:09;;;;;;;;;;;27.90;60.80;;;;;;5031827;28;20266;-78
2022/06/14 10:41:34;;;;;;;;;;;28.20;60.40;;;;;;5043510;28;19913;-78
2022/06/14 10:44:20;;;;;;;;;;;29.00;59.90;;;;;;5034380;28;19909;-76
2022/06/14 10:46:49;;;;;;;;;;;28.70;59.20;;;;;;5035078;28;20390;-75
2022/06/14 10:49:20;;;;;;;;;;;28.00;60.70;;;;;;5028241;28;19917;-78
2022/06/14 10:51:49;;;;;;;;;;;28.00;61.70;;;;;;5032598;28;19917;-76
2022/06/14 10:54:16;;;;;;;;;;;28.50;61.00;;;;;;5045386;28;19921;-77
2022/06/14 10:56:52;;;;;;;;;;;27.90;60.40;;;;;;5033955;28;19955;-76
2022/06/14 10:59:36;;;;;;;;;;;28.00;61.30;;;;;;5033295;28;19917;-78
2022/06/14 11:02:07;;;;;;;;;;;28.50;61.00;;;;;;5048683;28;19964;-77
2022/06/14 11:04:47;;;;;;;;;;;28.60;60.80;;;;;;5033030;28;19920;-77
2022/06/14 11:07:18;;;;;;;;;;;29.20;57.30;;;;;;5028396;28;19955;-78
2022/06/14 11:09:50;;;;;;;;;;;28.70;58.40;;;;;;5041829;28;19944;-77
2022/06/14 11:12:22;;;;;;;;;;;28.90;57.80;;;;;;5027633;28;19960;-77
2022/06/14 11:14:56;;;;;;;;;;;28.90;58.90;;;;;;5028282;28;20370;-76
2022/06/14 11:17:22;;;;;;;;;;;28.40;59.20;;;;;;5026498;28;19917;-76
2022/06/14 11:19:56;;;;;;;;;;;27.80;60.70;;;;;;5025542;28;19961;-76
2022/06/14 11:22:37;;;;;;;;;;;28.90;61.20;;;;;;5024989;28;19928;-75
2022/06/14 11:25:14;;;;;;;;;;;28.80;59.90;;;;;;5027081;28;19916;-75
2022/06/14 11:27:59;;;;;;;;;;;29.50;59.50;;;;;;5027573;28;19962;-75
2022/06/14 11:30:24;;;;;;;;;;;29.40;59.80;;;;;;5029655;28;19917;-77
2022/06/14 11:32:56;;;;;;;;;;;29.70;58.90;;;;;;5044295;28;19977;-77
2022/06/14 11:35:34;;;;;;;;;;;28.80;58.00;;;;;;5045144;28;19967;-77
2022/06/14 11:38:00;;;;;;;;;;;29.00;60.00;;;;;;5031046;28;19913;-77
2022/06/14 11:40:25;;;;;;;;;;;28.90;58.80;;;;;;5028959;28;19928;-77
2022/06/14 11:43:15;;;;;;;;;;;29.10;60.20;;;;;;5026485;28;19960;-76
2022/06/14 11:45:53;;;;;;;;;;;29.20;58.30;;;;;;5029552;28;19936;-77
2022/06/14 11:48:28;;;;;;;;;;;29.40;58.50;;;;;;5027747;28;19916;-77
2022/06/14 11:50:56;;;;;;;;;;;28.70;57.60;;;;;;5026708;28;19939;-76
2022/06/14 11:53:21;;;;;;;;;;;28.50;58.30;;;;;;5028121;28;19960;-77
2022/06/14 11:56:06;;;;;;;;;;;29.10;59.00;;;;;;5028735;28;19944;-77
2022/06/14 11:59:00;;;;;;;;;;;29.80;58.10;;;;;;5032472;28;19909;-78
2022/06/14 12:01:44;;;;;;;;;;;30.00;58.00;;;;;;5032074;28;20285;-78
2022/06/14 12:04:09;;;;;;;;;;;28.80;59.10;;;;;;5044829;28;19974;-77
2022/06/14 12:06:44;;;;;;;;;;;29.40;58.50;;;;;;5031153;28;19917;-78
2022/06/14 12:09:22;;;;;;;;;;;29.00;58.70;;;;;;5045639;28;19916;-78
2022/06/14 12:11:55;;;;;;;;;;;29.40;58.60;;;;;;5031258;28;19917;-77
2022/06/14 12:14:36;;;;;;;;;;;30.60;57.80;;;;;;5026824;28;20421;-77
2022/06/14 12:17:17;;;;;;;;;;;30.40;56.40;;;;;;5025609;28;19925;-77
2022/06/14 12:19:47;;;;;;;;;;;29.70;57.60;;;;;;5029264;28;19919;-77
2022/06/14 12:22:28;;;;;;;;;;;29.80;56.60;;;;;;5038711;28;19989;-78
2022/06/14 12:28:21;;;;;;;;;;;29.70;57.00;;;;;;4994944;28;19929;-77
2022/06/14 12:30:48;;;;;;;;;;;29.50;57.30;;;;;;5029185;28;19913;-77
2022/06/14 12:33:19;;;;;;;;;;;29.50;56.90;;;;;;5031381;28;19913;-77
2022/06/14 12:36:11;;;;;;;;;;;30.30;57.00;;;;;;5029112;28;19916;-77
2022/06/14 12:38:39;;;;;;;;;;;29.90;56.90;;;;;;5010980;28;19916;-78
2022/06/14 12:41:28;;;;;;;;;;;30.50;56.50;;;;;;5033802;28;19922;-77
2022/06/14 12:44:15;;;;;;;;;;;30.90;55.20;;;;;;5030769;28;20365;-77
2022/06/14 12:46:42;;;;;;;;;;;29.90;55.80;;;;;;5029652;28;19987;-78
2022/06/14 12:49:27;;;;;;;;;;;29.90;57.60;;;;;;5024527;28;20575;-77
2022/06/14 12:52:15;;;;;;;;;;;30.00;57.60;;;;;;5032426;28;20416;-77
2022/06/14 12:55:04;;;;;;;;;;;30.90;55.60;;;;;;5029717;28;19971;-79
2022/06/14 12:57:39;;;;;;;;;;;32.20;54.90;;;;;;5028555;28;20689;-75
2022/06/14 13:00:19;;;;;;;;;;;31.90;54.30;;;;;;5028093;28;19920;-73
2022/06/14 13:02:51;;;;;;;;;;;30.80;55.80;;;;;;5030762;28;19984;-77
2022/06/14 13:05:19;;;;;;;;;;;31.30;55.40;;;;;;5033094;28;19992;-77
2022/06/14 13:08:03;;;;;;;;;;;31.00;55.00;;;;;;5029277;28;19909;-77
2022/06/14 13:10:40;;;;;;;;;;;29.40;56.90;;;;;;5046333;28;19993;-76
2022/06/14 13:13:11;;;;;;;;;;;27.20;59.00;;;;;;5029668;28;19995;-76
2022/06/14 13:15:55;;;;;;;;;;;26.90;60.20;;;;;;5030134;28;19952;-77
2022/06/14 13:18:26;;;;;;;;;;;27.20;60.10;;;;;;5031413;28;19952;-78
2022/06/14 13:21:02;;;;;;;;;;;27.00;60.60;;;;;;5033732;28;19909;-77
2022/06/14 13:23:40;;;;;;;;;;;27.30;60.40;;;;;;5032975;28;20332;-77
2022/06/14 13:26:25;;;;;;;;;;;27.30;60.80;;;;;;5030898;28;19916;-78
2022/06/14 13:28:56;;;;;;;;;;;28.40;59.60;;;;;;5032931;28;19916;-78
2022/06/14 13:31:40;;;;;;;;;;;28.20;58.40;;;;;;5028330;28;19916;-78
2022/06/14 13:34:24;;;;;;;;;;;27.80;59.70;;;;;;5031420;28;19978;-76
2022/06/14 13:36:50;;;;;;;;;;;26.90;61.50;;;;;;5028888;28;19909;-78
2022/06/14 13:39:23;;;;;;;;;;;27.00;61.40;;;;;;5034160;28;20503;-76
2022/06/14 13:42:03;;;;;;;;;;;27.50;58.40;;;;;;5035638;28;19913;-77
2022/06/14 13:44:37;;;;;;;;;;;28.50;57.30;;;;;;5033224;28;19909;-76
2022/06/14 13:47:11;;;;;;;;;;;29.90;56.40;;;;;;5052186;28;19913;-77
2022/06/14 13:49:57;;;;;;;;;;;30.80;55.50;;;;;;5035766;28;19963;-78
2022/06/14 13:52:25;;;;;;;;;;;30.70;55.00;;;;;;5034719;28;19908;-77
2022/06/14 13:54:51;;;;;;;;;;;29.90;55.70;;;;;;5033335;28;19952;-77
2022/06/14 13:57:30;;;;;;;;;;;28.30;56.60;;;;;;5051767;28;20006;-76
2022/06/14 13:59:57;;;;;;;;;;;27.60;57.90;;;;;;5033406;28;20373;-76
2022/06/14 14:02:23;;;;;;;;;;;28.00;56.80;;;;;;5032805;28;19909;-76
2022/06/14 14:04:53;;;;;;;;;;;29.20;55.70;;;;;;5036145;28;19992;-77
2022/06/14 14:07:34;;;;;;;;;;;29.90;56.00;;;;;;5033231;28;19909;-75
2022/06/14 14:10:17;;;;;;;;;;;30.60;55.90;;;;;;5032841;28;20004;-76
2022/06/14 14:12:50;;;;;;;;;;;31.10;56.20;;;;;;5049507;28;20501;-76
2022/06/14 14:15:35;;;;;;;;;;;29.60;55.30;;;;;;5032521;28;19970;-76
2022/06/14 14:18:11;;;;;;;;;;;28.10;56.60;;;;;;5034163;28;20552;-77
2022/06/14 14:20:39;;;;;;;;;;;26.90;58.60;;;;;;5035223;28;19905;-78
2022/06/14 14:23:05;;;;;;;;;;;27.60;58.70;;;;;;5051110;28;19905;-78
2022/06/14 14:25:35;;;;;;;;;;;28.60;58.50;;;;;;5032608;28;19909;-76
2022/06/14 14:28:09;;;;;;;;;;;29.50;57.70;;;;;;5024436;28;19959;-75
2022/06/14 14:30:53;;;;;;;;;;;30.30;56.40;;;;;;5034928;28;20354;-76
2022/06/14 14:33:23;;;;;;;;;;;30.40;55.40;;;;;;5039040;28;20007;-75
2022/06/14 14:35:51;;;;;;;;;;;30.90;55.10;;;;;;5042351;28;19961;-75
2022/06/14 14:38:23;;;;;;;;;;;31.10;55.90;;;;;;5035049;28;19905;-76
2022/06/14 14:43:37;;;;;;;;;;;31.10;54.70;;;;;;5034821;28;20004;-76
2022/06/14 14:46:25;;;;;;;;;;;31.50;54.60;;;;;;5033898;28;19982;-76
2022/06/14 14:49:11;;;;;;;;;;;32.20;53.80;;;;;;5033795;28;19956;-76
2022/06/14 14:51:38;;;;;;;;;;;31.80;52.80;;;;;;5027252;28;19905;-77
2022/06/14 14:54:04;;;;;;;;;;;31.70;53.90;;;;;;5034371;28;19917;-77
2022/06/14 14:56:39;;;;;;;;;;;31.80;53.00;;;;;;5050603;28;19931;-78
2022/06/14 14:59:10;;;;;;;;;;;32.20;52.40;;;;;;5033623;28;19944;-76
2022/06/14 15:07:23;;;;;;;;;;;30.50;54.60;;;;;;5035839;28;19924;-77
2022/06/14 15:10:17;;;;;;;;;;;29.40;55.40;;;;;;5034281;28;19912;-77
2022/06/14 15:12:48;;;;;;;;;;;28.80;57.10;;;;;;5023586;28;19920;-77
2022/06/14 15:15:17;;;;;;;;;;;28.50;57.60;;;;;;5033713;28;19954;-77